Time;durP1;ratioP1;P1;durP2;ratioP2;P2;SDS_P1;SDS_P2;PMS_P1;PMS_P2;Temp;Humidity;BMP_temperature;BMP_pressure;BME280_temperature;BME280_humidity;BME280_pressure;Samples;Min_cycle;Max_cycle;Signal;HPM_P1;HPM_P2
2022/10/20 00:00:37;;;;;;;10.77;9.80;;;;;;;5.72;100.00;97680.31;5010830;28;20230;-62
2022/10/20 00:03:05;;;;;;;11.13;9.23;;;;;;;5.60;100.00;97671.75;5012181;28;20206;-61
2022/10/20 00:05:35;;;;;;;11.83;10.87;;;;;;;5.53;100.00;97673.28;5009097;28;20333;-62
2022/10/20 00:08:03;;;;;;;11.43;10.43;;;;;;;5.40;100.00;97677.00;4993072;28;20211;-63
2022/10/20 00:10:31;;;;;;;11.50;10.47;;;;;;;5.46;100.00;97671.19;4963970;28;20510;-60
2022/10/20 00:12:59;;;;;;;11.00;10.00;;;;;;;5.67;100.00;97674.63;5012109;28;20203;-61
2022/10/20 00:15:27;;;;;;;11.70;10.80;;;;;;;5.52;100.00;97674.25;5008007;28;20428;-62
2022/10/20 00:17:55;;;;;;;10.70;9.90;;;;;;;5.47;100.00;97664.13;5010206;28;20214;-61
2022/10/20 00:20:23;;;;;;;11.83;10.83;;;;;;;5.57;100.00;97666.78;5009411;28;20223;-61
2022/10/20 00:22:53;;;;;;;11.60;10.73;;;;;;;5.52;100.00;97669.00;4987718;28;20503;-61
2022/10/20 00:25:21;;;;;;;11.53;10.40;;;;;;;5.36;100.00;97679.09;4965875;28;20450;-60
2022/10/20 00:27:49;;;;;;;11.70;10.77;;;;;;;5.55;100.00;97674.78;5009590;28;20521;-61
2022/10/20 00:30:18;;;;;;;11.90;10.90;;;;;;;5.65;100.00;97674.78;5008336;28;20463;-62
2022/10/20 00:32:50;;;;;;;11.23;10.13;;;;;;;5.56;100.00;97670.38;5008551;28;20199;-61
2022/10/20 00:35:18;;;;;;;11.50;10.60;;;;;;;5.42;100.00;97680.31;5011691;28;20314;-63
2022/10/20 00:37:47;;;;;;;10.97;9.97;;;;;;;5.41;100.00;97676.03;4988234;28;21258;-63
2022/10/20 00:40:16;;;;;;;11.33;10.43;;;;;;;5.40;100.00;97677.00;4968034;28;20328;-63
2022/10/20 00:42:45;;;;;;;11.47;10.43;;;;;;;5.20;100.00;97661.25;5011270;28;20595;-63
2022/10/20 00:45:14;;;;;;;11.43;10.53;;;;;;;5.11;100.00;97662.06;5010317;28;20242;-63
2022/10/20 00:47:45;;;;;;;11.33;10.50;;;;;;;5.06;100.00;97669.53;5010302;28;20233;-62
2022/10/20 00:50:16;;;;;;;12.20;11.00;;;;;;;5.01;100.00;97666.47;4984943;28;21059;-63
2022/10/20 00:52:46;;;;;;;10.47;9.70;;;;;;;5.07;100.00;97660.66;4988253;28;21187;-62
2022/10/20 00:55:17;;;;;;;11.83;10.83;;;;;;;5.05;100.00;97660.81;4964713;28;20721;-63
2022/10/20 00:57:47;;;;;;;12.10;11.20;;;;;;;5.01;100.00;97662.06;5009637;28;20366;-63
2022/10/20 01:00:16;;;;;;;12.17;11.17;;;;;;;4.98;100.00;97658.88;5013210;28;20234;-61
2022/10/20 01:02:45;;;;;;;11.47;10.33;;;;;;;4.81;100.00;97650.72;5010292;28;20415;-61
2022/10/20 01:05:14;;;;;;;13.00;11.87;;;;;;;4.90;100.00;97660.38;5013417;28;22179;-61
2022/10/20 01:07:42;;;;;;;13.93;12.50;;;;;;;5.01;100.00;97655.97;5010372;28;20418;-62
2022/10/20 01:10:10;;;;;;;12.77;11.77;;;;;;;5.07;100.00;97651.00;4950331;28;20214;-61
2022/10/20 01:12:46;;;;;;;14.00;12.60;;;;;;;5.16;100.00;97645.88;5009578;28;20367;-61
2022/10/20 01:15:20;;;;;;;13.87;12.53;;;;;;;5.14;100.00;97645.19;5016176;28;21049;-61
2022/10/20 01:17:55;;;;;;;13.17;12.03;;;;;;;5.15;100.00;97639.81;4999260;28;21900;-63
2022/10/20 01:20:47;;;;;;;13.80;12.53;;;;;;;5.23;100.00;97647.00;5011780;28;20222;-64
2022/10/20 01:23:34;;;;;;;13.43;11.93;;;;;;;5.28;100.00;97646.59;5012860;28;20203;-63
2022/10/20 01:26:18;;;;;;;13.00;11.70;;;;;;;5.30;100.00;97639.41;4941681;28;20241;-62
2022/10/20 01:28:52;;;;;;;14.17;12.73;;;;;;;5.20;100.00;97634.97;5013844;28;20260;-63
2022/10/20 01:31:26;;;;;;;14.90;11.90;;;;;;;5.22;100.00;97635.66;5012635;28;20609;-61
2022/10/20 01:33:58;;;;;;;14.10;12.27;;;;;;;5.14;100.00;97638.16;5015770;28;20387;-62
2022/10/20 01:36:30;;;;;;;13.00;11.80;;;;;;;5.13;100.00;97644.38;5013176;28;20497;-63
2022/10/20 01:39:02;;;;;;;13.27;12.00;;;;;;;5.08;100.00;97622.94;5015688;28;20206;-62
2022/10/20 01:41:33;;;;;;;13.30;12.20;;;;;;;5.15;100.00;97620.59;4927578;28;21231;-62
2022/10/20 01:44:05;;;;;;;13.13;11.83;;;;;;;5.24;100.00;97618.94;5015377;28;20203;-62
2022/10/20 01:46:34;;;;;;;13.43;12.20;;;;;;;5.15;100.00;97603.03;5014648;28;20230;-60
2022/10/20 01:49:04;;;;;;;12.50;11.40;;;;;;;5.18;100.00;97610.66;5013995;28;20203;-60
2022/10/20 01:51:32;;;;;;;12.53;11.43;;;;;;;5.16;100.00;97609.97;4992690;28;20407;-62
2022/10/20 01:54:00;;;;;;;12.00;11.10;;;;;;;5.13;100.00;97609.41;5014033;28;20302;-62
2022/10/20 01:56:35;;;;;;;12.67;11.47;;;;;;;5.00;100.00;97612.28;4943242;28;20463;-63
2022/10/20 01:59:33;;;;;;;13.37;12.17;;;;;;;5.07;100.00;97611.63;4988980;28;20489;-62
2022/10/20 02:02:12;;;;;;;13.37;12.07;;;;;;;5.04;100.00;97606.63;5015858;28;20397;-62
2022/10/20 02:04:49;;;;;;;13.20;12.10;;;;;;;4.99;100.00;97616.72;5014832;28;20660;-64
2022/10/20 02:07:20;;;;;;;13.87;12.47;;;;;;;5.02;100.00;97607.72;5015031;28;21749;-60
2022/10/20 02:09:51;;;;;;;12.00;11.00;;;;;;;4.95;100.00;97614.50;5017796;28;20199;-64
2022/10/20 02:12:23;;;;;;;12.13;11.13;;;;;;;4.87;100.00;97618.66;4964180;28;20695;-61
2022/10/20 02:14:53;;;;;;;12.93;11.73;;;;;;;4.80;100.00;97617.53;5014761;28;20214;-63
2022/10/20 02:17:22;;;;;;;12.83;11.50;;;;;;;4.82;100.00;97620.03;5012254;28;20559;-63
2022/10/20 02:19:52;;;;;;;14.23;13.00;;;;;;;4.73;100.00;97612.00;5015385;28;20292;-61
2022/10/20 02:22:20;;;;;;;13.03;11.73;;;;;;;4.77;100.00;97612.56;5010225;28;20211;-61
2022/10/20 02:24:49;;;;;;;12.97;11.87;;;;;;;4.81;100.00;97615.75;5017398;28;20235;-62
2022/10/20 02:27:22;;;;;;;12.47;11.47;;;;;;;4.73;100.00;97622.50;4964927;28;20744;-63
2022/10/20 02:29:52;;;;;;;12.30;11.30;;;;;;;4.56;100.00;97617.94;5016256;28;20202;-62
2022/10/20 02:32:23;;;;;;;15.43;12.53;;;;;;;4.53;100.00;97620.78;5012070;28;21166;-62
2022/10/20 02:34:51;;;;;;;13.60;12.37;;;;;;;4.53;100.00;97611.16;5015563;28;20202;-62
2022/10/20 02:37:19;;;;;;;12.77;11.77;;;;;;;4.38;100.00;97615.94;5012742;28;20678;-60
2022/10/20 02:39:48;;;;;;;13.33;12.13;;;;;;;4.24;100.00;97629.44;5014588;28;20214;-61
2022/10/20 02:42:17;;;;;;;12.27;11.03;;;;;;;4.22;100.00;97626.13;4966207;28;20258;-63
2022/10/20 02:44:45;;;;;;;11.77;10.77;;;;;;;4.17;100.00;97623.88;4987473;28;20496;-60
2022/10/20 02:47:13;;;;;;;13.87;12.57;;;;;;;4.05;100.00;97615.28;5014226;28;20626;-61
2022/10/20 02:49:43;;;;;;;14.33;13.03;;;;;;;4.12;100.00;97610.34;5016034;28;20714;-59
2022/10/20 02:52:11;;;;;;;13.77;12.27;;;;;;;4.05;100.00;97612.66;5012643;28;20206;-63
2022/10/20 02:54:40;;;;;;;13.97;12.63;;;;;;;4.07;100.00;97602.03;5014874;28;20747;-62
2022/10/20 02:57:08;;;;;;;13.63;12.47;;;;;;;4.20;100.00;97602.63;4965421;28;20235;-64
2022/10/20 02:59:36;;;;;;;12.33;11.17;;;;;;;4.31;100.00;97597.28;5013331;28;20353;-61
2022/10/20 03:02:05;;;;;;;14.17;12.80;;;;;;;4.33;100.00;97600.59;5014508;28;20416;-61
2022/10/20 03:04:33;;;;;;;12.63;11.67;;;;;;;4.27;100.00;97588.00;5014107;28;20599;-61
2022/10/20 03:07:03;;;;;;;13.43;12.30;;;;;;;4.28;100.00;97594.91;5010464;28;20391;-61
2022/10/20 03:09:31;;;;;;;12.90;11.87;;;;;;;4.29;100.00;97588.69;5014358;28;20203;-62
2022/10/20 03:11:59;;;;;;;13.03;11.63;;;;;;;4.33;100.00;97584.84;5012135;28;20210;-62
2022/10/20 03:14:27;;;;;;;13.13;11.90;;;;;;;4.40;100.00;97592.19;4971277;28;20509;-63
2022/10/20 03:16:55;;;;;;;13.17;11.83;;;;;;;4.45;100.00;97582.94;5012018;28;21581;-64
2022/10/20 03:19:24;;;;;;;13.33;12.20;;;;;;;4.53;100.00;97586.69;5013810;28;20210;-60
2022/10/20 03:21:52;;;;;;;12.57;11.57;;;;;;;4.42;100.00;97582.41;5011980;28;20222;-61
2022/10/20 03:24:21;;;;;;;13.07;11.97;;;;;;;4.37;100.00;97588.03;5011659;28;20392;-60
2022/10/20 03:26:49;;;;;;;13.53;12.27;;;;;;;4.30;100.00;97590.38;5012858;28;21810;-61
2022/10/20 03:29:18;;;;;;;12.97;11.87;;;;;;;4.22;100.00;97586.78;4947688;28;21559;-63
2022/10/20 03:31:46;;;;;;;12.77;11.63;;;;;;;4.17;100.00;97592.41;5012638;28;20190;-62
2022/10/20 03:34:19;;;;;;;13.93;12.83;;;;;;;4.22;100.00;97574.47;5011535;28;20203;-63
2022/10/20 03:36:48;;;;;;;12.63;11.40;;;;;;;4.19;100.00;97587.84;5012241;28;20724;-62
2022/10/20 03:39:16;;;;;;;14.37;12.97;;;;;;;4.22;100.00;97577.09;4983698;28;20356;-61
2022/10/20 03:41:45;;;;;;;13.90;12.60;;;;;;;4.21;100.00;97575.44;5014954;28;20222;-60
2022/10/20 03:44:14;;;;;;;13.47;12.37;;;;;;;4.19;100.00;97578.22;4941988;28;21347;-61
2022/10/20 03:46:42;;;;;;;13.13;11.97;;;;;;;4.09;100.00;97569.47;5012814;28;20227;-62
2022/10/20 03:49:10;;;;;;;13.20;11.87;;;;;;;4.12;100.00;97566.56;4984797;28;20408;-63
2022/10/20 03:51:38;;;;;;;12.80;11.70;;;;;;;4.14;100.00;97576.94;5013450;28;20447;-62
2022/10/20 03:54:07;;;;;;;13.13;11.93;;;;;;;4.12;100.00;97566.56;5011137;28;20654;-60
2022/10/20 03:56:35;;;;;;;14.03;11.37;;;;;;;4.11;100.00;97571.97;5007724;28;20239;-62
2022/10/20 03:59:04;;;;;;;13.00;11.90;;;;;;;4.12;100.00;97578.88;4964092;28;20217;-62
2022/10/20 04:01:33;;;;;;;13.97;12.63;;;;;;;4.11;100.00;97564.09;4966433;28;20305;-60
2022/10/20 04:04:01;;;;;;;14.17;12.93;;;;;;;4.09;100.00;97581.75;5011530;28;20321;-59
2022/10/20 04:06:30;;;;;;;13.63;12.37;;;;;;;4.06;100.00;97574.97;4992023;28;20235;-60
2022/10/20 04:08:58;;;;;;;12.77;11.70;;;;;;;4.14;100.00;97576.94;5015167;28;20217;-62
2022/10/20 04:11:27;;;;;;;14.03;12.60;;;;;;;4.08;100.00;97578.28;5013616;28;20264;-62
2022/10/20 04:13:56;;;;;;;13.50;12.33;;;;;;;3.96;100.00;97576.75;5000836;28;20207;-62
2022/10/20 04:16:26;;;;;;;13.03;12.03;;;;;;;3.94;100.00;97563.75;4956580;28;20306;-62
2022/10/20 04:18:54;;;;;;;12.63;11.53;;;;;;;3.91;100.00;97562.25;5014223;28;20206;-60
2022/10/20 04:21:24;;;;;;;12.97;11.87;;;;;;;3.89;100.00;97555.47;4986246;28;20237;-64
2022/10/20 04:23:53;;;;;;;13.23;12.13;;;;;;;3.89;100.00;97555.47;5014474;28;20206;-64
2022/10/20 04:26:21;;;;;;;14.93;12.57;;;;;;;3.91;100.00;97554.38;5014470;28;20273;-61
2022/10/20 04:28:49;;;;;;;12.50;11.50;;;;;;;3.84;100.00;97552.41;4990815;28;20632;-60
2022/10/20 04:31:18;;;;;;;13.43;12.10;;;;;;;3.82;100.00;97555.19;4953510;28;20206;-62
2022/10/20 04:33:47;;;;;;;13.10;11.80;;;;;;;3.82;100.00;97552.56;5014705;28;20206;-62
2022/10/20 04:36:15;;;;;;;12.90;11.60;;;;;;;3.97;100.00;97544.31;5016805;28;20819;-61
2022/10/20 04:38:44;;;;;;;13.50;12.20;;;;;;;4.01;100.00;97541.31;4989141;28;20222;-62
2022/10/20 04:41:12;;;;;;;13.27;12.10;;;;;;;3.94;100.00;97547.22;5017243;28;20203;-64
2022/10/20 04:43:40;;;;;;;13.10;11.77;;;;;;;3.86;100.00;97553.09;5017571;28;20203;-62
2022/10/20 04:46:10;;;;;;;13.23;12.03;;;;;;;3.73;100.00;97548.94;4999056;28;20269;-61
2022/10/20 04:48:43;;;;;;;13.20;11.90;;;;;;;3.68;100.00;97550.28;4984436;28;20333;-61
2022/10/20 04:51:14;;;;;;;13.10;12.00;;;;;;;3.66;100.00;97546.94;4999518;28;20228;-62
2022/10/20 04:53:43;;;;;;;13.40;12.20;;;;;;;3.64;100.00;97547.09;5017809;28;20209;-65
2022/10/20 04:56:17;;;;;;;13.50;12.07;;;;;;;3.60;100.00;97543.91;5017785;28;20222;-63
2022/10/20 04:58:47;;;;;;;13.23;12.23;;;;;;;3.61;100.00;97548.19;5018605;28;20759;-63
2022/10/20 05:01:16;;;;;;;13.20;11.90;;;;;;;3.60;100.00;97546.53;4974996;28;20223;-63
2022/10/20 05:03:45;;;;;;;13.50;12.23;;;;;;;3.66;100.00;97544.34;4991400;28;20217;-62
2022/10/20 05:06:16;;;;;;;12.63;11.53;;;;;;;3.66;100.00;97547.78;5018521;28;20294;-63
2022/10/20 05:08:47;;;;;;;12.60;11.50;;;;;;;3.57;100.00;97549.41;4972777;28;20213;-60
2022/10/20 05:11:16;;;;;;;13.47;12.07;;;;;;;3.54;100.00;97535.72;5009465;28;20374;-56
2022/10/20 05:13:44;;;;;;;14.07;12.87;;;;;;;3.55;100.00;97530.38;5007226;28;20739;-59
2022/10/20 05:16:13;;;;;;;14.27;11.73;;;;;;;3.59;100.00;97528.28;4984416;28;20707;-53
2022/10/20 05:18:41;;;;;;;13.13;11.93;;;;;;;3.64;100.00;97535.78;4973730;28;20509;-55
2022/10/20 05:21:11;;;;;;;13.77;12.43;;;;;;;3.47;100.00;97520.53;4991263;28;20570;-58
2022/10/20 05:23:41;;;;;;;13.57;12.27;;;;;;;3.50;100.00;97529.09;5018443;28;20203;-55
2022/10/20 05:26:11;;;;;;;12.90;11.67;;;;;;;3.45;100.00;97530.31;5020363;28;20400;-59
2022/10/20 05:28:41;;;;;;;13.20;12.00;;;;;;;3.45;100.00;97521.63;5022716;28;20211;-60
2022/10/20 05:31:09;;;;;;;13.20;12.00;;;;;;;3.56;100.00;97525.94;4993289;28;20234;-63
2022/10/20 05:33:38;;;;;;;13.03;11.87;;;;;;;3.63;100.00;97521.84;4949641;28;22264;-59
2022/10/20 05:36:08;;;;;;;13.73;12.33;;;;;;;3.70;100.00;97522.13;5010704;28;20739;-61
2022/10/20 05:38:36;;;;;;;13.60;12.40;;;;;;;3.73;100.00;97534.97;5015594;28;20206;-61
2022/10/20 05:41:10;;;;;;;13.67;12.40;;;;;;;3.67;100.00;97525.03;4990802;28;22060;-62
2022/10/20 05:43:39;;;;;;;13.50;12.33;;;;;;;3.56;100.00;97524.16;5014591;28;20434;-58
2022/10/20 05:46:08;;;;;;;12.97;11.77;;;;;;;3.62;100.00;97520.19;4946353;28;20239;-62
2022/10/20 05:48:36;;;;;;;12.27;11.17;;;;;;;3.56;100.00;97521.53;4959856;28;20441;-63
2022/10/20 05:51:11;;;;;;;13.40;12.00;;;;;;;3.59;100.00;97509.94;4956760;28;20215;-61
2022/10/20 05:53:43;;;;;;;14.47;13.13;;;;;;;3.63;100.00;97508.75;5003196;28;20414;-58
2022/10/20 05:56:14;;;;;;;14.37;12.87;;;;;;;3.71;100.00;97515.94;5011324;28;20516;-60
2022/10/20 05:58:42;;;;;;;13.73;12.30;;;;;;;3.71;100.00;97522.03;5016804;28;20329;-61
2022/10/20 06:01:15;;;;;;;16.20;14.50;;;;;;;3.79;100.00;97520.53;5012538;28;20215;-61
2022/10/20 06:03:47;;;;;;;14.20;12.93;;;;;;;3.80;100.00;97520.41;4956089;28;20215;-61
2022/10/20 06:06:16;;;;;;;13.30;12.10;;;;;;;3.80;100.00;97515.16;4987114;28;20849;-61
2022/10/20 06:08:44;;;;;;;13.57;12.30;;;;;;;3.77;100.00;97510.16;4977305;28;20526;-64
2022/10/20 06:11:15;;;;;;;14.73;13.43;;;;;;;3.77;100.00;97510.16;5016062;28;20615;-60
2022/10/20 06:13:44;;;;;;;12.90;11.60;;;;;;;3.83;100.00;97512.28;5013979;28;20218;-61
2022/10/20 06:16:19;;;;;;;14.40;12.53;;;;;;;3.84;100.00;97505.22;5014747;28;20935;-61
2022/10/20 06:18:48;;;;;;;13.03;11.80;;;;;;;3.89;100.00;97513.50;4991531;28;21009;-58
2022/10/20 06:21:19;;;;;;;12.93;11.63;;;;;;;3.87;100.00;97505.78;4939878;28;20215;-63
2022/10/20 06:23:47;;;;;;;12.70;11.50;;;;;;;3.95;100.00;97510.34;5009109;28;20571;-58
2022/10/20 06:26:19;;;;;;;13.67;11.77;;;;;;;3.95;100.00;97515.59;5017075;28;20225;-63
2022/10/20 06:28:49;;;;;;;12.33;11.00;;;;;;;4.03;100.00;97509.69;5017941;28;20828;-61
2022/10/20 06:31:19;;;;;;;12.03;10.93;;;;;;;4.05;100.00;97508.59;5018464;28;20195;-58
2022/10/20 06:33:48;;;;;;;12.67;11.57;;;;;;;4.07;100.00;97515.50;4995893;28;20229;-63
2022/10/20 06:36:17;;;;;;;12.43;11.33;;;;;;;4.09;100.00;97514.38;4967161;28;20556;-62
2022/10/20 06:38:46;;;;;;;13.80;12.27;;;;;;;4.08;100.00;97525.03;4953544;28;20309;-59
2022/10/20 06:41:18;;;;;;;13.17;11.77;;;;;;;4.06;100.00;97514.66;5015375;28;20207;-61
2022/10/20 06:43:46;;;;;;;12.33;11.20;;;;;;;4.11;100.00;97516.91;5016207;28;20472;-61
2022/10/20 06:46:16;;;;;;;12.27;11.07;;;;;;;4.22;100.00;97514.16;5015340;28;20227;-61
2022/10/20 06:48:45;;;;;;;13.07;11.87;;;;;;;4.40;100.00;97516.13;4991753;28;20218;-61
2022/10/20 06:51:14;;;;;;;13.70;12.37;;;;;;;4.39;100.00;97515.28;4971371;28;20597;-62
2022/10/20 06:53:43;;;;;;;13.10;11.60;;;;;;;4.51;100.00;97502.00;4947439;28;20910;-60
2022/10/20 06:56:14;;;;;;;14.53;12.47;;;;;;;4.64;100.00;97508.66;5016749;28;20494;-61
2022/10/20 06:58:46;;;;;;;13.50;12.30;;;;;;;4.78;100.00;97509.22;5015563;28;20658;-57
2022/10/20 07:01:16;;;;;;;12.27;11.27;;;;;;;4.89;100.00;97510.84;5016977;28;20633;-60
2022/10/20 07:03:45;;;;;;;12.00;11.00;;;;;;;4.97;100.00;97513.63;4992516;28;20323;-61
2022/10/20 07:06:15;;;;;;;13.37;12.27;;;;;;;5.02;100.00;97502.69;5001101;28;20448;-57
2022/10/20 07:08:43;;;;;;;11.83;10.73;;;;;;;5.17;100.00;97508.31;4968058;28;21010;-60
2022/10/20 07:11:13;;;;;;;11.30;10.30;;;;;;;5.28;100.00;97502.09;5016571;28;20229;-60
2022/10/20 07:13:41;;;;;;;11.67;10.20;;;;;;;5.36;100.00;97499.56;4988532;28;20258;-61
2022/10/20 07:16:12;;;;;;;11.07;10.07;;;;;;;5.42;100.00;97513.94;5016314;28;20234;-60
2022/10/20 07:18:40;;;;;;;11.60;10.60;;;;;;;5.48;100.00;97508.91;5012520;28;20231;-60
2022/10/20 07:21:15;;;;;;;12.07;10.97;;;;;;;5.62;100.00;97509.44;4991824;28;20230;-60
2022/10/20 07:23:44;;;;;;;12.50;10.67;;;;;;;5.74;100.00;97505.66;4940351;28;21006;-61
2022/10/20 07:26:14;;;;;;;11.20;10.20;;;;;;;5.87;100.00;97501.84;5009812;28;20226;-61
2022/10/20 07:28:44;;;;;;;9.63;8.87;;;;;;;5.90;100.00;97494.50;5013118;28;20338;-59
2022/10/20 07:31:15;;;;;;;11.93;10.73;;;;;;;5.90;100.00;97494.50;5016826;28;20741;-62
2022/10/20 07:33:43;;;;;;;9.83;9.13;;;;;;;6.01;100.00;97488.25;5012762;28;20353;-64
2022/10/20 07:36:33;;;;;;;11.37;10.03;;;;;;;6.18;100.00;97493.66;4993495;28;20811;-62
2022/10/20 07:39:05;;;;;;;11.00;9.67;;;;;;;6.30;100.00;97495.13;4983790;28;20301;-63
2022/10/20 07:41:34;;;;;;;10.57;9.77;;;;;;;6.50;100.00;97487.91;5014639;28;20436;-62
2022/10/20 07:44:02;;;;;;;10.67;9.60;;;;;;;6.75;100.00;97503.09;5016553;28;20206;-63
2022/10/20 07:46:31;;;;;;;10.13;9.17;;;;;;;6.88;100.00;97497.44;5011186;28;20245;-60
2022/10/20 07:49:00;;;;;;;10.30;9.50;;;;;;;7.05;100.00;97495.78;5016025;28;20859;-63
2022/10/20 07:51:48;;;;;;;11.30;10.40;;;;;;;7.28;100.00;97496.09;4992009;28;20457;-61
2022/10/20 07:54:16;;;;;;;10.70;9.73;;;;;;;7.43;100.00;97475.25;4966386;28;20742;-61
2022/10/20 07:56:45;;;;;;;10.87;8.97;;;;;;;7.55;100.00;97482.88;5012493;28;20448;-60
2022/10/20 07:59:13;;;;;;;10.60;9.70;;;;;;;7.63;100.00;97462.66;5010798;28;20199;-62
2022/10/20 08:01:43;;;;;;;9.43;8.73;;;;;;;7.75;100.00;97460.53;5013384;28;20348;-61
2022/10/20 08:04:11;;;;;;;9.60;8.60;;;;;;;7.80;100.00;97458.28;5014013;28;20358;-61
2022/10/20 08:06:39;;;;;;;9.67;8.80;;;;;;;7.98;100.00;97462.59;5012544;28;20592;-61
2022/10/20 08:09:08;;;;;;;9.77;8.77;;;;;;;8.20;100.00;97471.72;4944741;28;20214;-62
2022/10/20 08:11:36;;;;;;;9.57;8.67;;;;;;;8.05;100.00;97468.06;5011649;28;22534;-62
2022/10/20 08:14:04;;;;;;;10.07;9.20;;;;;;;8.30;100.00;97468.94;5013404;28;20383;-61
2022/10/20 08:16:33;;;;;;;9.50;8.60;;;;;;;8.27;100.00;97461.34;5011352;28;20325;-60
2022/10/20 08:19:14;;;;;;;11.37;9.30;;;;;;;8.46;100.00;97456.75;5014418;28;20226;-61
2022/10/20 08:22:03;;;;;;;9.17;8.37;;;;;;;8.51;98.58;97444.75;5013587;28;21062;-60
2022/10/20 08:24:31;;;;;;;9.97;9.17;;;;;;;8.56;97.83;97432.84;4942433;28;20217;-60
2022/10/20 08:27:00;;;;;;;9.17;8.40;;;;;;;8.70;96.51;97432.19;5013950;28;20233;-59
2022/10/20 08:29:28;;;;;;;12.40;9.27;;;;;;;8.94;95.46;97423.44;5010568;28;20608;-61
2022/10/20 08:31:57;;;;;;;10.03;9.00;;;;;;;9.07;94.69;97432.66;5015373;28;20199;-62
2022/10/20 08:34:26;;;;;;;9.23;8.43;;;;;;;9.14;92.50;97425.69;5011406;28;20574;-60
2022/10/20 08:36:55;;;;;;;9.77;8.43;;;;;;;10.51;87.95;97413.94;5015212;28;20227;-62
2022/10/20 08:39:23;;;;;;;8.97;8.07;;;;;;;11.96;78.92;97405.75;4955085;28;20299;-62
2022/10/20 08:41:52;;;;;;;8.88;8.27;;;;;;;12.86;73.66;97402.72;5010937;28;20454;-61
2022/10/20 08:44:36;;;;;;;8.37;7.67;;;;;;;12.44;72.37;97410.56;5010636;28;20754;-59
2022/10/20 08:47:12;;;;;;;8.30;7.50;;;;;;;11.47;73.74;97425.78;5014917;28;20230;-61
2022/10/20 08:49:41;;;;;;;8.73;8.03;;;;;;;11.11;75.78;97415.91;5013164;28;20525;-61
2022/10/20 08:52:11;;;;;;;9.40;8.70;;;;;;;10.83;76.68;97419.16;5016322;28;20202;-60
2022/10/20 08:54:39;;;;;;;10.67;8.30;;;;;;;10.59;78.58;97423.66;4987712;28;20218;-61
2022/10/20 08:57:19;;;;;;;8.37;7.77;;;;;;;10.63;78.82;97414.34;4966913;28;20234;-63
2022/10/20 08:59:47;;;;;;;7.97;7.37;;;;;;;10.41;79.88;97411.53;5013568;28;20656;-62
2022/10/20 09:02:17;;;;;;;8.37;7.57;;;;;;;9.93;81.39;97408.19;5012466;28;20436;-63
2022/10/20 09:04:50;;;;;;;13.17;9.03;;;;;;;9.96;81.87;97400.75;5013226;28;20209;-60
2022/10/20 09:07:24;;;;;;;8.37;7.53;;;;;;;9.93;82.67;97387.84;5014302;28;20288;-61
2022/10/20 09:09:52;;;;;;;9.03;8.20;;;;;;;9.94;82.43;97389.50;4994838;28;20210;-60
2022/10/20 09:12:21;;;;;;;9.90;7.50;;;;;;;10.17;83.64;97403.75;4966432;28;20877;-63
2022/10/20 09:14:56;;;;;;;9.00;7.50;;;;;;;10.26;83.02;97394.75;5015156;28;20238;-62
2022/10/20 09:17:24;;;;;;;9.40;8.43;;;;;;;10.56;81.58;97402.84;5012420;28;20665;-62
2022/10/20 09:19:56;;;;;;;8.40;7.80;;;;;;;10.57;81.62;97402.63;5015151;28;21382;-62
2022/10/20 09:22:26;;;;;;;8.23;7.53;;;;;;;10.61;80.12;97386.41;5011592;28;20678;-62
2022/10/20 09:25:01;;;;;;;8.03;7.43;;;;;;;10.66;80.68;97392.00;4958580;28;20221;-62
2022/10/20 09:27:32;;;;;;;7.83;7.17;;;;;;;10.94;79.88;97394.88;4940722;28;20862;-62
2022/10/20 09:30:14;;;;;;;8.20;7.53;;;;;;;10.70;78.90;97382.69;5017942;28;20904;-62
2022/10/20 09:32:42;;;;;;;7.80;7.10;;;;;;;10.80;79.07;97380.59;5016806;28;20702;-58
2022/10/20 09:35:25;;;;;;;7.23;6.73;;;;;;;11.06;78.70;97375.84;5016680;28;20719;-62
2022/10/20 09:37:57;;;;;;;7.83;7.30;;;;;;;10.89;79.00;97368.09;5021473;28;20578;-62
2022/10/20 09:40:26;;;;;;;7.90;7.30;;;;;;;11.05;78.28;97358.28;4993070;28;20876;-60
2022/10/20 09:42:56;;;;;;;8.97;7.67;;;;;;;10.91;78.53;97365.22;4974914;28;20527;-62
2022/10/20 09:45:27;;;;;;;7.07;6.57;;;;;;;10.97;78.33;97372.44;5016864;28;20210;-63
2022/10/20 09:48:00;;;;;;;7.83;7.13;;;;;;;11.14;77.66;97376.59;4987704;28;20822;-62
2022/10/20 09:50:33;;;;;;;8.20;7.07;;;;;;;11.28;77.69;97372.28;5017047;28;20418;-63
2022/10/20 09:53:04;;;;;;;8.50;6.70;;;;;;;11.39;77.25;97384.28;5015294;28;20885;-62
2022/10/20 09:55:35;;;;;;;7.80;7.10;;;;;;;11.53;76.53;97365.88;5005728;28;20230;-60
2022/10/20 09:58:05;;;;;;;8.87;6.90;;;;;;;11.39;76.04;97351.59;4976374;28;20291;-58
2022/10/20 10:00:36;;;;;;;7.70;7.10;;;;;;;11.53;76.68;97349.94;5015463;28;20657;-59
2022/10/20 10:03:13;;;;;;;7.73;7.13;;;;;;;11.53;75.94;97345.44;5017784;28;20609;-58
2022/10/20 10:05:42;;;;;;;7.60;7.00;;;;;;;11.43;75.76;97336.97;5015226;28;20234;-60
2022/10/20 10:08:14;;;;;;;8.23;7.53;;;;;;;11.55;76.64;97329.34;5014530;28;20242;-62
2022/10/20 10:10:43;;;;;;;7.20;6.60;;;;;;;11.51;76.97;97323.59;5014605;28;20644;-62
2022/10/20 10:13:26;;;;;;;7.87;6.93;;;;;;;11.49;76.82;97327.44;4947549;28;20211;-55
2022/10/20 10:16:03;;;;;;;7.87;7.27;;;;;;;11.61;76.97;97327.78;5016052;28;20259;-60
2022/10/20 10:18:31;;;;;;;7.70;6.80;;;;;;;11.62;76.05;97329.44;5016103;28;21468;-61
2022/10/20 10:21:04;;;;;;;7.63;7.03;;;;;;;11.63;75.95;97331.88;5018934;28;20308;-63
2022/10/20 10:23:35;;;;;;;7.40;6.80;;;;;;;11.61;75.20;97325.13;5016450;28;20216;-61
2022/10/20 10:26:04;;;;;;;8.20;7.50;;;;;;;11.68;76.62;97334.78;5018185;28;20250;-63
2022/10/20 10:28:35;;;;;;;7.97;7.37;;;;;;;11.78;75.36;97321.22;4965402;28;21267;-61
2022/10/20 10:31:22;;;;;;;7.67;7.17;;;;;;;12.04;75.41;97334.97;5008833;28;21577;-61
2022/10/20 10:33:53;;;;;;;7.93;7.33;;;;;;;12.11;75.33;97328.72;5014797;28;20203;-61
2022/10/20 10:36:29;;;;;;;8.23;7.53;;;;;;;12.28;73.99;97339.91;4989056;28;20369;-64
2022/10/20 10:38:58;;;;;;;8.50;7.07;;;;;;;12.26;73.88;97339.28;5016180;28;20512;-60
2022/10/20 10:41:37;;;;;;;8.43;7.63;;;;;;;12.48;73.38;97335.78;5018091;28;20238;-62
2022/10/20 10:44:11;;;;;;;7.97;7.37;;;;;;;12.56;73.88;97325.00;4938094;28;20212;-63
2022/10/20 10:46:43;;;;;;;8.17;7.50;;;;;;;12.43;73.20;97313.28;5015445;28;20227;-61
2022/10/20 10:49:49;;;;;;;8.27;7.57;;;;;;;12.62;72.59;97321.56;5014784;28;20807;-62
2022/10/20 10:52:34;;;;;;;7.40;6.83;;;;;;;12.54;72.94;97316.41;4942666;28;20717;-61
2022/10/20 10:55:15;;;;;;;7.13;6.63;;;;;;;12.75;72.15;97320.84;4944021;28;21463;-61
2022/10/20 10:58:10;;;;;;;7.30;6.63;;;;;;;12.83;71.40;97314.56;4920498;28;20835;-61
2022/10/20 11:00:45;;;;;;;7.20;6.63;;;;;;;13.05;71.16;97309.16;4899613;28;20216;-63
2022/10/20 11:03:25;;;;;;;7.17;6.57;;;;;;;13.05;72.17;97302.00;4941386;28;20444;-62
2022/10/20 11:06:08;;;;;;;7.10;6.50;;;;;;;12.98;71.50;97295.84;4944300;28;20486;-58
2022/10/20 11:09:04;;;;;;;6.93;6.43;;;;;;;12.90;71.96;97272.06;4938574;28;20205;-60
2022/10/20 11:11:42;;;;;;;6.63;6.03;;;;;;;12.91;71.84;97271.06;4943299;28;20485;-61
2022/10/20 11:14:17;;;;;;;6.67;6.17;;;;;;;12.83;72.15;97262.19;4911987;28;20462;-62
2022/10/20 11:16:52;;;;;;;8.43;7.20;;;;;;;12.84;71.61;97266.50;4898156;28;20973;-62
2022/10/20 11:19:48;;;;;;;7.43;6.57;;;;;;;13.02;71.60;97260.66;4943177;28;20338;-61
2022/10/20 11:22:25;;;;;;;6.47;6.03;;;;;;;13.45;69.69;97256.16;4930497;28;21562;-60
2022/10/20 11:25:00;;;;;;;6.97;6.30;;;;;;;13.36;68.69;97251.97;4941517;28;20213;-61
2022/10/20 11:27:31;;;;;;;7.10;6.50;;;;;;;13.60;68.38;97243.47;5006494;28;20597;-60
2022/10/20 11:30:06;;;;;;;7.17;6.33;;;;;;;13.88;68.29;97234.50;4998514;28;20552;-62
2022/10/20 11:32:38;;;;;;;6.57;6.03;;;;;;;13.71;67.20;97235.91;4949002;28;20708;-62
2022/10/20 11:35:16;;;;;;;6.60;6.10;;;;;;;13.67;67.23;97248.81;4983675;28;20560;-61
2022/10/20 11:37:48;;;;;;;7.23;6.47;;;;;;;13.62;68.39;97245.94;4993971;28;20309;-61
2022/10/20 11:40:23;;;;;;;6.47;6.07;;;;;;;13.85;68.10;97248.25;5014843;28;20705;-60